Time;durP1;ratioP1;P1;durP2;ratioP2;P2;SDS_P1;SDS_P2;PMS_P1;PMS_P2;Temp;Humidity;BMP_temperature;BMP_pressure;BME280_temperature;BME280_humidity;BME280_pressure;Samples;Min_cycle;Max_cycle;Signal;HPM_P1;HPM_P2
2023/09/12 00:00:52;;;;;;;9.07;6.57;;;25.80;93.20;;;;;;6085430;23;20420;-86
2023/09/12 00:03:57;;;;;;;10.83;7.00;;;25.80;93.10;;;;;;6055419;23;20548;-83
2023/09/12 00:06:47;;;;;;;8.07;7.00;;;25.60;93.20;;;;;;6055076;23;20394;-84
2023/09/12 00:09:39;;;;;;;6.77;6.17;;;25.50;93.50;;;;;;6044991;23;20405;-84
2023/09/12 00:12:43;;;;;;;6.80;6.03;;;25.20;94.00;;;;;;6070653;23;20459;-84
2023/09/12 00:15:25;;;;;;;6.47;5.87;;;25.20;94.30;;;;;;6060008;23;20420;-86
2023/09/12 00:18:07;;;;;;;5.83;5.23;;;25.00;94.50;;;;;;6079315;23;20460;-87
2023/09/12 00:20:52;;;;;;;5.40;4.90;;;25.00;94.70;;;;;;6062483;23;20405;-84
2023/09/12 00:23:31;;;;;;;7.60;5.63;;;24.90;94.70;;;;;;6058656;23;20429;-87
2023/09/12 00:26:19;;;;;;;5.37;4.87;;;24.90;94.70;;;;;;6057476;23;20453;-84
2023/09/12 00:28:56;;;;;;;5.77;5.27;;;24.80;94.90;;;;;;6055139;23;20890;-85
2023/09/12 00:31:44;;;;;;;8.10;5.70;;;24.70;95.00;;;;;;6056012;23;20460;-86
2023/09/12 00:34:32;;;;;;;8.10;5.80;;;24.50;95.30;;;;;;6059377;23;20467;-86
2023/09/12 00:37:18;;;;;;;5.83;5.33;;;24.50;95.50;;;;;;5938059;23;20413;-86
2023/09/12 00:40:01;;;;;;;7.00;6.33;;;24.60;95.60;;;;;;6064116;23;20420;-88
2023/09/12 00:42:36;;;;;;;7.10;6.40;;;24.80;95.40;;;;;;6064111;23;20527;-86
2023/09/12 00:45:18;;;;;;;7.00;6.40;;;24.80;95.30;;;;;;6062892;23;20520;-85
2023/09/12 00:47:59;;;;;;;6.20;5.60;;;24.60;95.60;;;;;;6060436;23;20429;-85
2023/09/12 00:50:39;;;;;;;7.47;5.37;;;24.40;95.90;;;;;;6060042;23;20439;-84
2023/09/12 00:53:31;;;;;;;6.77;5.27;;;24.40;96.30;;;;;;6061546;23;21408;-87
2023/09/12 00:56:10;;;;;;;9.03;6.00;;;24.40;96.40;;;;;;6071940;23;20620;-87
2023/09/12 00:58:54;;;;;;;7.23;5.77;;;24.50;96.30;;;;;;6059189;23;20420;-86
2023/09/12 01:01:35;;;;;;;7.43;6.27;;;24.50;96.30;;;;;;6059828;23;20724;-86
2023/09/12 01:04:32;;;;;;;7.80;5.70;;;24.40;96.40;;;;;;6055933;23;20429;-85
2023/09/12 01:07:07;;;;;;;7.50;6.80;;;24.30;96.80;;;;;;6061835;23;20922;-84
2023/09/12 01:09:58;;;;;;;6.63;6.03;;;24.20;96.90;;;;;;6057944;23;20822;-86
2023/09/12 01:13:07;;;;;;;7.93;5.67;;;24.20;97.00;;;;;;6060217;23;20445;-85
2023/09/12 01:15:34;;;;;;;7.23;6.20;;;24.20;97.10;;;;;;6062798;23;20408;-86
2023/09/12 01:18:05;;;;;;;7.37;6.77;;;24.30;97.30;;;;;;6052958;23;20428;-84
2023/09/12 01:21:14;;;;;;;7.80;7.10;;;24.30;97.20;;;;;;6060431;23;20466;-83
2023/09/12 01:24:14;;;;;;;7.47;6.77;;;24.30;97.20;;;;;;6074461;23;20924;-83
2023/09/12 01:27:01;;;;;;;7.70;6.70;;;24.30;97.30;;;;;;6079680;23;20413;-86
2023/09/12 01:29:55;;;;;;;7.43;6.73;;;24.30;97.80;;;;;;6064662;23;20591;-86
2023/09/12 01:32:35;;;;;;;7.57;6.40;;;24.20;97.50;;;;;;6061371;23;20464;-86
2023/09/12 01:35:09;;;;;;;7.60;6.80;;;24.10;97.70;;;;;;6062676;23;20402;-84
2023/09/12 01:37:43;;;;;;;7.77;6.20;;;24.10;97.90;;;;;;6072973;23;20441;-85
2023/09/12 01:40:46;;;;;;;7.70;7.00;;;24.10;98.00;;;;;;6082347;23;20809;-85
2023/09/12 01:43:29;;;;;;;8.37;7.10;;;24.00;98.40;;;;;;6080178;23;20437;-84
2023/09/12 01:46:21;;;;;;;9.03;6.47;;;24.00;98.30;;;;;;6077865;23;20464;-85
2023/09/12 01:49:12;;;;;;;10.10;7.47;;;23.90;98.50;;;;;;6060686;23;20398;-85
2023/09/12 01:51:59;;;;;;;7.20;6.50;;;23.90;98.60;;;;;;6062138;23;20441;-84
2023/09/12 01:54:54;;;;;;;7.67;6.97;;;23.90;98.70;;;;;;6058898;23;20416;-84
2023/09/12 01:57:55;;;;;;;8.30;6.60;;;23.90;98.70;;;;;;6059705;23;20414;-84
2023/09/12 02:00:52;;;;;;;9.07;8.17;;;24.00;98.60;;;;;;6042618;23;20401;-88
2023/09/12 02:03:27;;;;;;;8.50;6.90;;;24.00;98.60;;;;;;6059985;23;20449;-86
2023/09/12 02:06:21;;;;;;;;;;;;;;;;;;;;;
2023/09/12 02:09:06;;;;;;;7.40;6.70;;;24.00;98.50;;;;;;6059610;23;20418;-86
2023/09/12 02:12:02;;;;;;;;;;;;;;;;;;;;;
2023/09/12 02:14:37;;;;;;;8.77;7.00;;;24.00;98.40;;;;;;6062314;23;20406;-86
2023/09/12 02:17:26;;;;;;;9.03;7.30;;;24.20;98.20;;;;;;6056316;23;20773;-84
2023/09/12 02:20:38;;;;;;;7.70;7.00;;;24.00;98.20;;;;;;6059784;23;20421;-84
2023/09/12 02:26:35;;;;;;;7.63;6.80;;;23.90;98.60;;;;;;6049132;23;20456;-85
2023/09/12 02:29:13;;;;;;;6.73;6.13;;;23.80;98.50;;;;;;6057971;23;20424;-87
2023/09/12 02:31:54;;;;;;;7.47;6.67;;;23.80;98.60;;;;;;6058605;23;20426;-87
2023/09/12 02:34:58;;;;;;;7.90;7.10;;;23.70;98.60;;;;;;6058051;23;20421;-85
2023/09/12 02:37:33;;;;;;;9.87;6.97;;;23.60;98.70;;;;;;6058911;23;20417;-84
2023/09/12 02:40:18;;;;;;;7.70;6.37;;;23.60;98.90;;;;;;6060489;23;20480;-84
2023/09/12 02:45:46;;;;;;;8.63;6.87;;;23.70;98.90;;;;;;6061379;23;20482;-84
2023/09/12 02:48:39;;;;;;;7.10;6.10;;;23.70;98.80;;;;;;6059259;23;20430;-85
2023/09/12 02:51:34;;;;;;;10.77;7.33;;;23.60;98.80;;;;;;6059269;23;20410;-84
2023/09/12 02:54:17;;;;;;;7.73;6.93;;;23.90;98.30;;;;;;6058344;23;20437;-84
2023/09/12 02:57:13;;;;;;;6.80;6.10;;;23.80;98.10;;;;;;6058536;23;20398;-85
2023/09/12 02:59:53;;;;;;;7.03;5.97;;;23.70;98.30;;;;;;6057878;23;20448;-84
2023/09/12 03:02:29;;;;;;;6.17;5.60;;;23.60;98.40;;;;;;6057656;23;20437;-84
2023/09/12 03:05:23;;;;;;;6.73;5.73;;;23.60;98.40;;;;;;6036555;23;20508;-84
2023/09/12 03:08:06;;;;;;;6.10;5.50;;;23.70;98.10;;;;;;6048869;23;20416;-87
2023/09/12 03:10:59;;;;;;;5.37;4.67;;;23.90;97.90;;;;;;6061996;23;20425;-85
2023/09/12 03:13:42;;;;;;;6.93;6.23;;;23.80;97.50;;;;;;6063843;23;20444;-87
2023/09/12 03:16:23;;;;;;;6.53;5.77;;;23.80;97.70;;;;;;6064708;23;20429;-87
2023/09/12 03:18:54;;;;;;;5.90;5.33;;;23.70;97.90;;;;;;6064824;23;20409;-86
2023/09/12 03:21:43;;;;;;;6.77;6.17;;;23.60;98.10;;;;;;6059404;23;20887;-85
2023/09/12 03:24:24;;;;;;;6.93;5.93;;;23.60;98.20;;;;;;6053155;23;20410;-88
2023/09/12 03:27:06;;;;;;;7.40;6.60;;;23.50;98.40;;;;;;6075709;23;20456;-86
2023/09/12 03:29:55;;;;;;;7.13;6.47;;;23.70;98.30;;;;;;6050029;23;20469;-84
2023/09/12 03:32:32;;;;;;;7.93;6.90;;;23.90;97.90;;;;;;6057909;23;20474;-85
2023/09/12 03:35:19;;;;;;;7.73;6.60;;;23.80;97.70;;;;;;6065583;23;20424;-86
2023/09/12 03:38:16;;;;;;;7.70;6.87;;;23.80;97.70;;;;;;6062762;23;20484;-86
2023/09/12 03:41:14;;;;;;;8.50;7.60;;;23.80;97.90;;;;;;6025922;23;20461;-87
2023/09/12 03:43:50;;;;;;;7.77;6.97;;;23.70;98.30;;;;;;6021395;23;20428;-84
2023/09/12 03:46:37;;;;;;;8.40;7.60;;;23.70;98.20;;;;;;5995083;23;20513;-87
2023/09/12 03:49:35;;;;;;;8.20;7.40;;;23.60;98.20;;;;;;5992218;23;20428;-85
2023/09/12 03:52:34;;;;;;;8.80;7.90;;;23.50;98.50;;;;;;5997759;23;20447;-88
2023/09/12 03:55:34;;;;;;;8.40;7.60;;;23.70;98.30;;;;;;6010754;23;20474;-85
2023/09/12 03:58:25;;;;;;;7.13;6.50;;;23.70;98.20;;;;;;5989648;23;20422;-84
2023/09/12 04:01:23;;;;;;;8.97;7.47;;;23.50;98.40;;;;;;6008390;23;20403;-85
2023/09/12 04:07:31;;;;;;;9.23;7.90;;;23.80;98.40;;;;;;6001343;23;20832;-86
2023/09/12 04:10:14;;;;;;;8.90;7.30;;;23.50;98.30;;;;;;5987563;23;20447;-87
2023/09/12 04:13:02;;;;;;;8.93;8.00;;;23.40;98.80;;;;;;5988483;23;20443;-85
2023/09/12 04:15:58;;;;;;;8.13;7.30;;;23.40;98.70;;;;;;5990430;23;20399;-86
2023/09/12 04:19:35;;;;;;;11.23;8.53;;;23.40;98.90;;;;;;5983692;23;20423;-86
2023/09/12 04:23:15;;;;;;;8.80;7.77;;;23.50;98.70;;;;;;5817484;24;20524;-86
2023/09/12 04:26:09;;;;;;;8.53;7.50;;;23.60;98.40;;;;;;5935793;23;20545;-86
2023/09/12 04:28:54;;;;;;;8.40;7.60;;;23.60;98.50;;;;;;5996663;23;20386;-85
2023/09/12 04:31:43;;;;;;;7.30;6.60;;;23.70;98.00;;;;;;5915348;24;20417;-85
2023/09/12 04:34:22;;;;;;;7.43;6.73;;;23.60;98.10;;;;;;5891702;24;20429;-86
2023/09/12 04:37:25;;;;;;;7.97;6.77;;;23.50;98.40;;;;;;5936559;24;20434;-84
2023/09/12 04:40:16;;;;;;;7.93;7.20;;;23.70;98.30;;;;;;5906418;24;21172;-83
2023/09/12 04:42:54;;;;;;;7.33;6.57;;;23.90;98.20;;;;;;5955000;24;20439;-86
2023/09/12 04:45:57;;;;;;;8.80;7.40;;;23.90;98.00;;;;;;5955600;24;20445;-86
2023/09/12 04:48:52;;;;;;;8.10;6.90;;;23.80;98.10;;;;;;5932414;24;20999;-84
2023/09/12 04:51:37;;;;;;;6.97;6.27;;;23.50;98.70;;;;;;5951941;24;20421;-85
2023/09/12 04:54:47;;;;;;;6.90;5.50;;;23.30;99.30;;;;;;5928841;23;20411;-86
2023/09/12 04:57:51;;;;;;;11.20;6.70;;;23.20;99.80;;;;;;5997584;23;20408;-85
2023/09/12 05:00:29;;;;;;;6.73;5.53;;;23.10;99.90;;;;;;6033414;23;20415;-86
2023/09/12 05:03:18;;;;;;;6.50;5.90;;;23.10;99.90;;;;;;6004180;23;20423;-86
2023/09/12 05:06:23;;;;;;;6.70;5.80;;;23.30;99.70;;;;;;6016809;23;20458;-86
2023/09/12 05:09:17;;;;;;;14.03;5.00;;;23.20;99.40;;;;;;6021355;23;20419;-86
2023/09/12 05:12:18;;;;;;;4.97;4.33;;;23.20;99.40;;;;;;6010463;23;20931;-87
2023/09/12 05:15:43;;;;;;;6.20;5.30;;;23.30;99.10;;;;;;6016076;23;20455;-86
2023/09/12 05:18:51;;;;;;;5.57;5.10;;;23.30;99.00;;;;;;5990783;23;20486;-86
2023/09/12 05:22:02;;;;;;;;;;;;;;;;;;;;;
2023/09/12 05:24:53;;;;;;;6.60;6.10;;;23.30;98.90;;;;;;6018503;23;20426;-87
2023/09/12 05:27:38;;;;;;;6.27;5.50;;;23.30;98.90;;;;;;6038259;23;20443;-87
2023/09/12 05:30:30;;;;;;;6.20;5.70;;;23.40;98.90;;;;;;6015826;23;20506;-86
2023/09/12 05:36:48;;;;;;;10.13;6.00;;;23.30;98.80;;;;;;5930601;24;20495;-87
2023/09/12 05:39:38;;;;;;;6.57;5.70;;;23.20;98.90;;;;;;5905986;24;21318;-85
2023/09/12 05:42:46;;;;;;;6.53;5.93;;;23.20;99.00;;;;;;5931410;24;21076;-85
2023/09/12 05:45:57;;;;;;;8.07;5.53;;;23.20;99.10;;;;;;5934886;24;20500;-86
2023/09/12 05:48:57;;;;;;;11.30;6.67;;;23.30;99.10;;;;;;5918385;24;20406;-89
2023/09/12 05:51:42;;;;;;;8.30;6.13;;;23.30;98.90;;;;;;5942831;24;20424;-86
2023/09/12 05:54:58;;;;;;;9.63;6.73;;;23.30;98.90;;;;;;5930172;24;20461;-86
2023/09/12 06:01:07;;;;;;;;;;;;;;;;;;;;;
2023/09/12 06:03:37;;;;;;;6.83;6.17;;;23.60;98.40;;;;;;5946337;24;20528;-85
2023/09/12 06:06:15;;;;;;;7.27;6.37;;;24.00;97.70;;;;;;5928033;24;20483;-87
2023/09/12 06:09:09;;;;;;;10.93;7.57;;;24.30;97.10;;;;;;5928635;24;20421;-86
2023/09/12 06:11:57;;;;;;;6.50;5.37;;;24.50;96.90;;;;;;6042346;23;20407;-86
2023/09/12 06:14:36;;;;;;;5.97;5.57;;;25.60;95.20;;;;;;6052910;23;20490;-86
2023/09/12 06:21:11;;;;;;;7.27;5.77;;;27.00;92.20;;;;;;6041073;23;20394;-85
2023/09/12 06:24:15;;;;;;;6.67;5.53;;;28.00;88.60;;;;;;6033949;23;20470;-88
2023/09/12 06:27:09;;;;;;;5.20;4.70;;;28.10;87.30;;;;;;6012104;23;20462;-87
2023/09/12 06:29:58;;;;;;;5.40;4.90;;;27.70;86.90;;;;;;6058149;23;20414;-86
2023/09/12 06:33:09;;;;;;;6.60;5.60;;;26.80;89.30;;;;;;6033836;23;21030;-86
2023/09/12 06:36:12;;;;;;;6.70;6.10;;;26.30;90.90;;;;;;5978529;24;20417;-85
2023/09/12 06:38:54;;;;;;;5.90;5.13;;;27.10;90.80;;;;;;5997985;23;20470;-87
2023/09/12 06:41:41;;;;;;;11.50;6.70;;;27.60;88.70;;;;;;5921842;24;20430;-85
2023/09/12 06:44:36;;;;;;;8.60;7.63;;;27.70;88.10;;;;;;5915930;24;20437;-87
2023/09/12 06:47:55;;;;;;;10.23;8.83;;;28.00;87.20;;;;;;5887747;24;20451;-87
2023/09/12 06:50:54;;;;;;;9.47;8.57;;;28.50;86.40;;;;;;5863438;24;20439;-86
2023/09/12 06:54:18;;;;;;;9.07;8.00;;;28.50;85.90;;;;;;5870912;24;20451;-89
2023/09/12 06:57:09;;;;;;;10.47;7.97;;;28.00;87.70;;;;;;5885969;24;20427;-86
2023/09/12 07:00:15;;;;;;;12.23;9.00;;;28.20;87.90;;;;;;5917377;24;20467;-88
2023/09/12 07:03:13;;;;;;;8.83;8.13;;;28.70;86.90;;;;;;5953566;24;20481;-85
2023/09/12 07:06:28;;;;;;;10.00;7.83;;;28.20;85.70;;;;;;5954787;24;20431;-85
2023/09/12 07:09:24;;;;;;;;;;;;;;;;;;;;;
2023/09/12 07:12:28;;;;;;;8.77;7.90;;;27.40;88.50;;;;;;5973924;24;20871;-87
2023/09/12 07:15:29;;;;;;;9.87;8.87;;;26.80;90.40;;;;;;5952522;24;20507;-87
2023/09/12 07:18:20;;;;;;;9.70;8.70;;;26.70;91.00;;;;;;6001287;23;20787;-84
2023/09/12 07:21:37;;;;;;;11.57;9.67;;;26.90;90.60;;;;;;6031098;23;20509;-84
2023/09/12 07:24:44;;;;;;;11.23;8.33;;;26.80;90.50;;;;;;6029274;23;20415;-85
2023/09/12 07:28:01;;;;;;;;;;;;;;;;;;;;;
2023/09/12 07:30:45;;;;;;;11.03;9.93;;;26.50;91.80;;;;;;6038680;23;20422;-88
2023/09/12 07:33:31;;;;;;;8.80;7.80;;;27.00;91.20;;;;;;6033523;23;20494;-87
2023/09/12 07:36:25;;;;;;;9.17;8.27;;;28.10;90.50;;;;;;6030478;23;21004;-85
2023/09/12 07:39:11;;;;;;;7.70;7.00;;;29.30;83.80;;;;;;6025436;23;20481;-86
2023/09/12 07:41:55;;;;;;;8.23;7.43;;;30.00;81.20;;;;;;6031349;23;20418;-88
2023/09/12 07:44:32;;;;;;;9.00;6.50;;;31.10;76.60;;;;;;6033010;23;20430;-86
2023/09/12 07:51:05;;;;;;;5.80;5.30;;;32.20;69.20;;;;;;5940639;24;20422;-89
2023/09/12 07:53:32;;;;;;;5.60;5.20;;;32.10;67.80;;;;;;6014629;23;20472;-86
2023/09/12 07:56:08;;;;;;;7.20;5.07;;;32.20;66.60;;;;;;6052821;23;20390;-89
2023/09/12 07:58:55;;;;;;;;;;;;;;;;;;;;;
2023/09/12 08:01:51;;;;;;;5.20;4.77;;;32.80;64.00;;;;;;6053417;23;20422;-86
2023/09/12 08:04:50;;;;;;;6.00;5.50;;;33.40;61.40;;;;;;6013657;23;20447;-86
2023/09/12 08:07:51;;;;;;;6.23;5.63;;;33.40;60.40;;;;;;6008840;23;20451;-87
2023/09/12 08:11:04;;;;;;;6.43;5.10;;;33.40;59.40;;;;;;6003639;23;20399;-87
2023/09/12 08:13:40;;;;;;;5.27;4.77;;;34.00;59.10;;;;;;6003339;23;20453;-83
2023/09/12 08:16:24;;;;;;;8.13;4.93;;;33.60;58.80;;;;;;5981296;23;20944;-86
2023/09/12 08:19:20;;;;;;;5.90;5.37;;;33.60;58.40;;;;;;6002553;23;20429;-85
2023/09/12 08:22:09;;;;;;;5.30;4.90;;;33.50;58.50;;;;;;5990814;23;20442;-85
2023/09/12 08:24:51;;;;;;;6.70;6.03;;;33.90;57.30;;;;;;6000945;23;20427;-84
2023/09/12 08:27:42;;;;;;;6.13;5.40;;;34.00;56.80;;;;;;5999885;23;20461;-84
2023/09/12 08:30:42;;;;;;;5.83;5.30;;;33.80;56.70;;;;;;6002869;23;20490;-85
2023/09/12 08:33:13;;;;;;;6.00;5.40;;;32.20;59.50;;;;;;6000471;23;20519;-85
2023/09/12 08:35:46;;;;;;;6.13;5.63;;;31.00;63.40;;;;;;6022463;23;21368;-85
2023/09/12 08:38:40;;;;;;;6.50;6.00;;;30.10;66.20;;;;;;6002244;23;20599;-85
2023/09/12 08:41:11;;;;;;;7.33;6.63;;;29.50;68.70;;;;;;5999427;23;20419;-88
2023/09/12 08:43:41;;;;;;;7.47;6.77;;;29.20;71.40;;;;;;5999088;23;20435;-86
2023/09/12 08:46:12;;;;;;;7.30;6.60;;;28.90;71.70;;;;;;5998935;23;20457;-84
2023/09/12 08:48:57;;;;;;;8.10;7.30;;;28.50;74.30;;;;;;6000818;23;20840;-85
2023/09/12 08:51:44;;;;;;;7.73;6.80;;;28.40;75.90;;;;;;5992600;23;20842;-86
2023/09/12 08:54:33;;;;;;;7.20;6.47;;;28.20;76.90;;;;;;6021389;23;20797;-85
2023/09/12 08:57:20;;;;;;;7.30;6.70;;;28.00;78.00;;;;;;5999901;23;20412;-86
2023/09/12 09:00:24;;;;;;;12.43;7.37;;;28.00;78.60;;;;;;6002071;23;20490;-85
2023/09/12 09:03:03;;;;;;;7.13;6.53;;;28.10;79.30;;;;;;5999104;23;20661;-85
2023/09/12 09:05:48;;;;;;;8.17;7.50;;;27.90;79.80;;;;;;5999426;23;20507;-87
2023/09/12 09:08:35;;;;;;;9.10;7.30;;;27.60;81.00;;;;;;6001071;23;20602;-86
2023/09/12 09:11:10;;;;;;;8.70;7.47;;;28.00;81.50;;;;;;6001931;23;20418;-85
2023/09/12 09:14:12;;;;;;;;;;;;;;;;;;;;;
2023/09/12 09:17:13;;;;;;;10.97;8.20;;;28.40;79.00;;;;;;6005593;23;20492;-87
2023/09/12 09:20:50;;;;;;;8.60;7.60;;;28.50;79.20;;;;;;6003142;23;20486;-85
2023/09/12 09:23:43;;;;;;;9.00;7.60;;;28.70;79.60;;;;;;6009662;23;20843;-84
2023/09/12 09:26:59;;;;;;;10.00;6.80;;;29.00;77.80;;;;;;6017944;23;20442;-85
2023/09/12 09:29:52;;;;;;;7.37;6.67;;;29.20;77.40;;;;;;6016815;23;20431;-88
2023/09/12 09:35:45;;;;;;;7.50;6.73;;;29.10;77.60;;;;;;6005417;23;20423;-83
2023/09/12 09:38:36;;;;;;;8.77;6.93;;;29.40;76.20;;;;;;6007419;23;20761;-87
2023/09/12 09:41:36;;;;;;;7.90;7.20;;;29.50;75.30;;;;;;6029306;23;20376;-87
2023/09/12 09:44:16;;;;;;;6.73;6.13;;;30.30;73.80;;;;;;6009753;23;20618;-86
2023/09/12 09:46:57;;;;;;;6.10;5.60;;;31.50;68.90;;;;;;6003535;23;20486;-85
2023/09/12 09:49:37;;;;;;;6.17;5.63;;;32.80;64.90;;;;;;6002454;23;21276;-85
2023/09/12 09:52:48;;;;;;;6.07;5.67;;;33.00;62.30;;;;;;5999183;23;20438;-87
2023/09/12 09:55:29;;;;;;;6.17;5.57;;;31.40;65.10;;;;;;6000109;23;20438;-86
2023/09/12 09:58:17;;;;;;;6.60;5.37;;;30.30;69.90;;;;;;5999273;23;20411;-84
2023/09/12 10:00:51;;;;;;;6.57;5.70;;;30.90;69.40;;;;;;6002464;23;20897;-85
2023/09/12 10:07:03;;;;;;;5.10;4.60;;;30.80;69.80;;;;;;6000547;23;20441;-86
2023/09/12 10:09:43;;;;;;;6.50;5.27;;;30.60;70.10;;;;;;6003115;23;20415;-87
2023/09/12 10:12:43;;;;;;;6.37;5.77;;;29.90;73.00;;;;;;6020285;23;20430;-88
2023/09/12 10:15:30;;;;;;;5.70;5.20;;;29.50;75.10;;;;;;6026305;23;20399;-88
2023/09/12 10:18:16;;;;;;;5.27;4.77;;;29.60;75.70;;;;;;6026331;23;20431;-86
2023/09/12 10:21:28;;;;;;;6.10;5.60;;;29.90;74.80;;;;;;6028704;23;20411;-86
2023/09/12 10:24:07;;;;;;;6.27;5.73;;;30.20;73.80;;;;;;6019923;23;20502;-86
2023/09/12 10:26:43;;;;;;;4.80;4.40;;;30.50;71.80;;;;;;6007150;23;20458;-85
2023/09/12 10:29:16;;;;;;;4.27;3.87;;;30.90;70.70;;;;;;6007559;23;20549;-86
2023/09/12 10:32:20;;;;;;;5.00;4.60;;;31.30;68.70;;;;;;6009274;23;20407;-84
2023/09/12 10:35:03;;;;;;;5.10;4.70;;;31.60;67.30;;;;;;6013417;23;20419;-85
2023/09/12 10:37:49;;;;;;;5.43;4.70;;;31.80;65.70;;;;;;6014195;23;20421;-85
2023/09/12 10:40:19;;;;;;;5.87;5.27;;;30.90;68.70;;;;;;6012770;23;20796;-87
2023/09/12 10:42:59;;;;;;;6.23;5.70;;;30.50;69.40;;;;;;6006796;23;20530;-86
2023/09/12 10:45:48;;;;;;;5.60;5.10;;;30.00;71.20;;;;;;6036740;23;20521;-87
2023/09/12 10:48:34;;;;;;;7.03;5.20;;;29.60;73.50;;;;;;6068807;23;20489;-86
2023/09/12 10:51:13;;;;;;;6.30;4.90;;;30.10;72.20;;;;;;6068604;23;21001;-88
2023/09/12 10:53:48;;;;;;;5.90;5.30;;;30.10;72.40;;;;;;6062778;23;20857;-87
2023/09/12 10:56:37;;;;;;;5.63;5.13;;;30.40;71.40;;;;;;6069838;23;20461;-87
2023/09/12 10:59:18;;;;;;;5.93;5.43;;;30.90;69.70;;;;;;6064364;23;20503;-87
2023/09/12 11:02:44;;;;;;;7.90;5.87;;;31.80;67.00;;;;;;6071670;23;20402;-86
2023/09/12 11:05:42;;;;;;;6.20;5.43;;;31.90;66.30;;;;;;6060278;23;20483;-85
2023/09/12 11:08:41;;;;;;;5.90;5.43;;;32.20;64.20;;;;;;6066341;23;20449;-85
2023/09/12 11:11:32;;;;;;;6.30;5.80;;;32.80;62.80;;;;;;6068434;23;20424;-85
2023/09/12 11:14:11;;;;;;;7.77;5.13;;;32.60;62.40;;;;;;6065257;23;20518;-87
2023/09/12 11:17:10;;;;;;;6.47;5.90;;;32.50;63.30;;;;;;6064959;23;20431;-86
2023/09/12 11:20:19;;;;;;;6.30;5.70;;;32.60;62.10;;;;;;6059657;23;20413;-86
2023/09/12 11:25:44;;;;;;;6.07;5.67;;;32.10;64.20;;;;;;6047294;23;20492;-86
2023/09/12 11:29:18;;;;;;;4.83;4.47;;;31.90;63.80;;;;;;4585424;27;15825503;-86
2023/09/12 11:35:40;;;;;;;4.17;3.77;;;32.60;62.40;;;;;;5113198;27;20448;-87
2023/09/12 11:38:34;;;;;;;4.63;4.23;;;33.30;60.50;;;;;;5120332;27;20457;-88
2023/09/12 11:54:09;;;;;;;;;;;;;;;;;;;;;
2023/09/12 11:57:36;;;;;;;5.53;4.20;;;33.30;60.40;;;;;;5063007;28;20506;-86
2023/09/12 12:06:30;;;;;;;4.60;4.30;;;33.50;59.60;;;;;;5062122;28;20478;-84
2023/09/12 12:09:17;;;;;;;5.40;4.93;;;33.00;59.30;;;;;;5057033;28;20444;-85
2023/09/12 12:12:22;;;;;;;5.20;4.90;;;32.80;60.90;;;;;;5063207;28;20429;-83
2023/09/12 12:15:54;;;;;;;4.73;4.40;;;32.60;60.00;;;;;;5060530;28;20456;-85
2023/09/12 12:19:48;;;;;;;4.70;4.40;;;32.50;61.50;;;;;;5004710;28;20541;-87
2023/09/12 12:23:03;;;;;;;5.17;4.67;;;32.50;61.50;;;;;;4944234;28;20529;-86
2023/09/12 12:25:51;;;;;;;5.13;4.73;;;33.00;60.30;;;;;;4973399;28;20534;-85
2023/09/12 12:32:02;;;;;;;5.40;4.90;;;32.50;60.50;;;;;;5015604;28;20510;-85
2023/09/12 12:34:49;;;;;;;5.70;5.20;;;32.80;59.50;;;;;;5021627;28;21099;-83
2023/09/12 12:38:11;;;;;;;6.13;4.67;;;32.30;61.30;;;;;;5003992;28;20437;-84
2023/09/12 12:40:49;;;;;;;6.30;4.37;;;32.40;61.20;;;;;;4982223;28;20480;-85
2023/09/12 12:46:32;;;;;;;5.37;4.87;;;32.60;60.00;;;;;;5025755;28;20533;-86
2023/09/12 12:49:25;;;;;;;6.00;5.50;;;32.40;61.00;;;;;;5026920;28;20471;-87
2023/09/12 12:52:24;;;;;;;5.87;4.93;;;32.50;60.80;;;;;;5026987;28;20515;-86
2023/09/12 12:55:49;;;;;;;4.77;4.43;;;32.40;61.10;;;;;;5028795;28;20472;-86
2023/09/12 12:58:49;;;;;;;5.30;4.90;;;32.30;61.30;;;;;;5044426;28;20851;-85
2023/09/12 13:01:44;;;;;;;5.57;5.17;;;32.50;61.10;;;;;;5028925;28;20467;-87
2023/09/12 13:04:40;;;;;;;5.10;4.70;;;32.50;60.60;;;;;;5025937;28;20447;-86
2023/09/12 13:07:21;;;;;;;6.00;5.37;;;32.20;61.20;;;;;;5029890;28;20590;-88
2023/09/12 13:10:16;;;;;;;4.70;4.33;;;32.10;61.30;;;;;;5023511;28;20559;-86
2023/09/12 13:13:20;;;;;;;6.23;4.70;;;31.70;62.30;;;;;;5030905;28;20481;-86
2023/09/12 13:15:57;;;;;;;5.17;4.70;;;31.40;63.40;;;;;;5028552;28;20540;-86
2023/09/12 13:18:42;;;;;;;;;;;;;;;;;;;;;
2023/09/12 13:21:21;;;;;;;5.17;4.67;;;31.30;64.00;;;;;;5038251;28;20472;-87
2023/09/12 13:23:54;;;;;;;5.80;5.13;;;31.10;64.00;;;;;;5029717;28;20979;-86
2023/09/12 13:26:46;;;;;;;5.30;4.90;;;31.40;64.10;;;;;;5037538;28;20452;-85
2023/09/12 13:29:48;;;;;;;;;;;;;;;;;;;;;
2023/09/12 13:32:26;;;;;;;5.13;4.70;;;31.10;64.20;;;;;;5031333;28;20466;-85
2023/09/12 13:35:35;;;;;;;6.00;4.80;;;30.70;65.10;;;;;;5025924;28;20916;-84
2023/09/12 13:38:22;;;;;;;5.10;4.70;;;30.80;65.50;;;;;;5024051;28;20510;-86
2023/09/12 13:40:55;;;;;;;4.60;4.20;;;31.00;64.80;;;;;;5026619;28;20464;-85
2023/09/12 13:43:36;;;;;;;4.53;4.23;;;31.00;64.30;;;;;;5026927;28;21022;-85
2023/09/12 13:46:10;;;;;;;6.17;5.23;;;30.90;64.50;;;;;;5027983;28;20552;-84
2023/09/12 13:49:03;;;;;;;5.60;5.10;;;31.40;63.80;;;;;;5026142;28;20526;-86
2023/09/12 13:51:41;;;;;;;5.27;4.87;;;31.50;62.90;;;;;;5041595;28;20486;-86
2023/09/12 13:54:19;;;;;;;5.70;5.20;;;31.70;61.50;;;;;;5028110;28;20460;-84
2023/09/12 13:57:05;;;;;;;5.77;5.17;;;31.30;62.10;;;;;;5030044;28;20535;-84
2023/09/12 13:59:52;;;;;;;5.33;4.93;;;31.00;62.80;;;;;;5032151;28;20488;-82
2023/09/12 14:02:38;;;;;;;5.70;4.77;;;30.80;63.20;;;;;;5033720;28;20481;-86
2023/09/12 14:05:39;;;;;;;6.40;5.90;;;30.30;64.60;;;;;;5043993;28;20468;-84
2023/09/12 14:08:19;;;;;;;7.00;5.37;;;30.10;65.50;;;;;;5030989;28;20499;-88
2023/09/12 14:11:08;;;;;;;6.30;4.40;;;30.00;65.80;;;;;;5030792;28;20524;-86
2023/09/12 14:14:11;;;;;;;5.40;4.90;;;30.10;65.90;;;;;;5039204;28;20580;-85
2023/09/12 14:16:52;;;;;;;4.57;4.27;;;30.00;65.70;;;;;;5021230;28;20477;-86
2023/09/12 14:19:31;;;;;;;5.70;5.10;;;30.10;64.80;;;;;;5049616;28;20457;-87
2023/09/12 14:22:09;;;;;;;5.50;5.00;;;29.80;65.10;;;;;;5066371;28;20453;-87
2023/09/12 14:25:08;;;;;;;5.23;4.80;;;29.70;66.00;;;;;;5048666;28;20471;-87
2023/09/12 14:27:50;;;;;;;4.43;4.13;;;29.60;66.60;;;;;;5046240;28;20611;-86
2023/09/12 14:30:45;;;;;;;6.00;4.80;;;29.90;66.50;;;;;;5045803;28;20438;-87
2023/09/12 14:33:55;;;;;;;5.50;5.00;;;30.10;66.20;;;;;;5033187;28;20497;-86
2023/09/12 14:36:45;;;;;;;6.57;5.27;;;29.80;67.00;;;;;;5031502;28;20460;-86
2023/09/12 14:39:30;;;;;;;5.63;5.00;;;29.80;67.20;;;;;;5031905;28;20894;-85
2023/09/12 14:42:12;;;;;;;4.33;3.93;;;29.60;67.70;;;;;;5024684;28;20451;-86
2023/09/12 14:44:51;;;;;;;6.50;5.90;;;29.80;68.10;;;;;;5037817;28;20460;-86
2023/09/12 14:47:21;;;;;;;5.07;4.10;;;29.60;67.50;;;;;;5046859;28;20492;-86
2023/09/12 14:50:23;;;;;;;4.53;4.13;;;29.50;68.20;;;;;;5032338;28;20456;-86
2023/09/12 14:53:04;;;;;;;5.80;4.33;;;29.60;68.60;;;;;;5043627;28;20461;-86
2023/09/12 14:55:51;;;;;;;5.80;4.13;;;29.80;68.30;;;;;;5015514;28;20564;-87
2023/09/12 14:58:56;;;;;;;4.60;4.30;;;29.80;67.70;;;;;;5022547;28;20468;-87
2023/09/12 15:01:45;;;;;;;4.33;4.00;;;29.80;67.90;;;;;;5026266;28;22218;-88
2023/09/12 15:04:24;;;;;;;4.10;3.80;;;29.90;67.40;;;;;;5029667;28;20842;-85
2023/09/12 15:07:10;;;;;;;4.40;3.97;;;29.80;67.40;;;;;;5027471;28;20457;-86
2023/09/12 15:09:46;;;;;;;5.80;4.07;;;29.80;67.40;;;;;;5012653;28;20475;-87
2023/09/12 15:12:33;;;;;;;4.10;3.70;;;30.00;67.30;;;;;;5026809;28;20588;-86
2023/09/12 15:15:31;;;;;;;;;;;;;;;;;;;;;
2023/09/12 15:18:19;;;;;;;5.03;4.60;;;29.70;67.30;;;;;;5032844;28;20522;-85
2023/09/12 15:21:13;;;;;;;4.43;3.67;;;29.60;67.20;;;;;;5036713;28;20456;-85
2023/09/12 15:24:11;;;;;;;4.93;4.53;;;29.50;67.60;;;;;;5031660;28;21117;-87
2023/09/12 15:26:47;;;;;;;4.20;3.80;;;29.60;67.80;;;;;;5028684;28;20471;-87
2023/09/12 15:29:30;;;;;;;4.33;3.97;;;30.00;65.90;;;;;;5027037;28;20479;-87
2023/09/12 15:32:12;;;;;;;5.10;4.60;;;29.70;66.70;;;;;;5035931;28;20510;-86
2023/09/12 15:35:01;;;;;;;4.50;4.10;;;29.70;67.00;;;;;;5029554;28;20461;-86
2023/09/12 15:37:49;;;;;;;4.87;4.30;;;29.60;67.70;;;;;;5028725;28;20453;-87
2023/09/12 15:40:22;;;;;;;5.33;4.53;;;29.90;66.80;;;;;;5032700;28;20472;-86
2023/09/12 15:43:05;;;;;;;3.90;3.70;;;29.60;67.20;;;;;;5028334;28;20480;-86
2023/09/12 15:45:49;;;;;;;4.93;4.53;;;29.30;68.20;;;;;;5028099;28;20469;-87
2023/09/12 15:48:34;;;;;;;4.67;4.27;;;29.20;68.90;;;;;;5035588;28;20492;-86
2023/09/12 15:51:09;;;;;;;4.20;3.80;;;29.20;69.00;;;;;;5030658;28;20550;-85
2023/09/12 15:53:45;;;;;;;4.63;4.23;;;29.40;68.30;;;;;;5036169;28;20542;-88
2023/09/12 15:57:02;;;;;;;11.17;5.17;;;29.40;67.60;;;;;;5032132;28;20476;-86
2023/09/12 15:59:39;;;;;;;5.00;4.50;;;29.10;68.60;;;;;;5027574;28;20810;-86
2023/09/12 16:02:13;;;;;;;4.40;4.00;;;29.10;68.60;;;;;;5046432;28;20467;-87
2023/09/12 16:05:15;;;;;;;4.53;3.93;;;28.90;68.60;;;;;;5043516;28;20500;-87